createdAt,value
2023-05-03T00:01:31.794Z,78.81
2023-05-03T00:03:59.517Z,78.32
2023-05-03T00:06:28.158Z,78.03
2023-05-03T00:08:56.126Z,78.16
2023-05-03T00:11:23.891Z,78.06
2023-05-03T00:13:51.708Z,78.05
2023-05-03T00:16:20.723Z,77.78
2023-05-03T00:18:49.480Z,77.62
2023-05-03T00:21:17.361Z,77.86
2023-05-03T00:23:45.158Z,77.59
2023-05-03T00:26:13.034Z,77.70
2023-05-03T00:28:41.724Z,77.84
2023-05-03T00:31:11.038Z,78.10
2023-05-03T00:33:40.149Z,78.01
2023-05-03T00:36:09.861Z,78.12
2023-05-03T00:38:38.140Z,78.04
2023-05-03T00:41:06.865Z,78.25
2023-05-03T00:43:35.413Z,78.56
2023-05-03T00:46:15.930Z,78.66
2023-05-03T00:48:50.779Z,79.09
2023-05-03T00:51:20.748Z,79.62
2023-05-03T00:53:48.508Z,79.89
2023-05-03T00:56:26.390Z,80.20
2023-05-03T00:58:54.516Z,80.14
2023-05-03T01:01:22.510Z,80.22
2023-05-03T01:03:50.799Z,80.43
2023-05-03T01:06:43.675Z,80.38
2023-05-03T01:09:39.793Z,80.23
2023-05-03T01:12:23.846Z,80.26
2023-05-03T01:15:08.481Z,80.13
2023-05-03T01:17:42.220Z,80.47
2023-05-03T01:20:14.202Z,80.87
2023-05-03T01:22:56.390Z,81.21
2023-05-03T01:25:25.304Z,81.21
2023-05-03T01:27:53.061Z,81.28
2023-05-03T01:30:24.086Z,81.17
2023-05-03T01:33:13.634Z,81.01
2023-05-03T01:36:02.395Z,81.15
2023-05-03T01:38:37.332Z,81.55
2023-05-03T01:41:12.733Z,81.47
2023-05-03T01:43:40.706Z,81.51
2023-05-03T01:46:08.568Z,81.96
2023-05-03T01:48:36.706Z,81.92
2023-05-03T01:51:04.583Z,81.74
2023-05-03T01:53:32.295Z,81.42
2023-05-03T01:55:59.997Z,81.28
2023-05-03T01:58:27.853Z,80.96
2023-05-03T02:00:56.777Z,80.80
2023-05-03T02:03:24.610Z,80.80
2023-05-03T02:05:52.294Z,80.91
2023-05-03T02:08:20.172Z,80.92
2023-05-03T02:10:47.998Z,80.58
2023-05-03T02:13:17.245Z,80.14
2023-05-03T02:15:44.953Z,79.94
2023-05-03T02:18:12.722Z,79.95
2023-05-03T02:20:44.996Z,80.16
2023-05-03T02:23:13.246Z,79.97
2023-05-03T02:25:41.640Z,79.82
2023-05-03T02:28:09.431Z,79.60
2023-05-03T02:30:37.254Z,79.69
2023-05-03T02:33:05.044Z,79.82
2023-05-03T02:35:33.189Z,79.68
2023-05-03T02:38:00.922Z,79.62
2023-05-03T02:40:28.844Z,79.67
2023-05-03T02:42:56.810Z,79.67
2023-05-03T02:45:26.603Z,79.92
2023-05-03T02:47:55.091Z,79.93
2023-05-03T02:50:23.177Z,79.69
2023-05-03T02:52:50.987Z,79.51
2023-05-03T02:55:18.896Z,79.35
2023-05-03T02:57:47.054Z,79.15
2023-05-03T03:00:16.869Z,79.56
2023-05-03T03:02:44.976Z,79.89
2023-05-03T03:05:13.063Z,80.13
2023-05-03T03:07:41.299Z,80.28
2023-05-03T03:10:09.783Z,80.41
2023-05-03T03:12:37.841Z,80.44
2023-05-03T03:15:07.182Z,80.39
2023-05-03T03:17:39.414Z,80.55
2023-05-03T03:20:11.821Z,80.55
2023-05-03T03:22:40.287Z,80.52
2023-05-03T03:25:08.776Z,80.74
2023-05-03T03:27:39.078Z,80.49
2023-05-03T03:30:08.630Z,80.36
2023-05-03T03:32:36.984Z,80.28
2023-05-03T03:35:05.739Z,80.12
2023-05-03T03:37:33.786Z,80.08
2023-05-03T03:40:01.731Z,79.88
2023-05-03T03:42:31.020Z,80.13
2023-05-03T03:44:59.147Z,80.17
2023-05-03T03:47:27.132Z,80.67
2023-05-03T03:49:55.031Z,80.43
2023-05-03T03:52:22.824Z,80.40
2023-05-03T03:54:50.684Z,79.85
2023-05-03T03:57:20.734Z,79.95
2023-05-03T03:59:48.635Z,80.07
2023-05-03T04:02:16.596Z,79.86
2023-05-03T04:04:44.595Z,79.53
2023-05-03T04:07:12.624Z,79.33
2023-05-03T04:09:40.421Z,79.23
2023-05-03T04:12:08.433Z,79.02
2023-05-03T04:14:36.513Z,78.76
2023-05-03T04:17:04.663Z,78.41
2023-05-03T04:19:33.307Z,78.32
2023-05-03T04:22:01.347Z,78.26
2023-05-03T04:24:30.587Z,78.19
2023-05-03T04:26:59.130Z,77.88
2023-05-03T04:29:30.151Z,77.82
2023-05-03T04:31:58.311Z,77.79
2023-05-03T04:34:26.382Z,77.76
2023-05-03T04:36:54.855Z,77.64
2023-05-03T04:39:24.031Z,77.53
2023-05-03T04:41:53.580Z,77.37
2023-05-03T04:44:22.391Z,77.08
2023-05-03T04:46:51.335Z,76.68
2023-05-03T04:49:19.526Z,76.63
2023-05-03T04:51:47.430Z,76.39
2023-05-03T04:54:15.589Z,76.16
2023-05-03T04:56:43.394Z,76.01
2023-05-03T04:59:16.059Z,76.30
2023-05-03T05:01:44.004Z,76.15
2023-05-03T05:04:12.055Z,75.99
2023-05-03T05:06:43.905Z,75.64
2023-05-03T05:09:25.969Z,75.19
2023-05-03T05:11:57.225Z,74.61
2023-05-03T05:14:28.106Z,74.22
2023-05-03T05:16:56.032Z,73.66
2023-05-03T05:19:24.096Z,73.55
2023-05-03T05:21:52.627Z,72.98
2023-05-03T05:24:21.209Z,73.10
2023-05-03T05:26:49.635Z,72.67
2023-05-03T05:29:18.020Z,72.50
2023-05-03T05:31:46.482Z,72.18
2023-05-03T05:34:14.555Z,72.06
2023-05-03T05:36:42.666Z,71.95
2023-05-03T05:39:10.450Z,70.84
2023-05-03T05:41:38.400Z,69.91
2023-05-03T05:44:07.265Z,69.52
2023-05-03T05:46:35.271Z,69.50
2023-05-03T05:49:03.384Z,69.65
2023-05-03T05:51:31.822Z,69.37
2023-05-03T05:54:00.336Z,68.70
2023-05-03T05:56:29.138Z,67.97
2023-05-03T05:58:57.768Z,67.52
2023-05-03T06:01:27.059Z,67.78
2023-05-03T06:03:56.429Z,67.73
2023-05-03T06:06:24.497Z,67.60
2023-05-03T06:08:53.571Z,66.41
2023-05-03T06:11:22.248Z,65.60
2023-05-03T06:13:50.316Z,64.72
2023-05-03T06:16:19.522Z,64.46
2023-05-03T06:18:47.261Z,64.60
2023-05-03T06:21:15.629Z,64.88
2023-05-03T06:23:43.654Z,64.68
2023-05-03T06:26:12.105Z,63.88
2023-05-03T06:28:40.153Z,61.76
2023-05-03T06:31:08.187Z,60.55
2023-05-03T06:33:36.089Z,59.50
2023-05-03T06:36:04.228Z,58.16
2023-05-03T06:38:32.057Z,59.09
2023-05-03T06:40:59.948Z,58.09
2023-05-03T06:43:27.946Z,58.02
2023-05-03T06:46:01.904Z,57.40
2023-05-03T06:48:29.787Z,57.05
2023-05-03T06:50:57.686Z,56.59
2023-05-03T06:53:25.531Z,56.42
2023-05-03T06:55:53.347Z,55.72
2023-05-03T06:58:21.749Z,56.60
2023-05-03T07:00:53.542Z,56.72
2023-05-03T07:03:21.800Z,57.15
2023-05-03T07:05:49.673Z,57.27
2023-05-03T07:08:17.917Z,55.73
2023-05-03T07:10:45.888Z,54.64
2023-05-03T07:13:14.254Z,53.73
2023-05-03T07:15:42.007Z,52.94
2023-05-03T07:18:09.862Z,53.13
2023-05-03T07:20:37.813Z,52.76
2023-05-03T07:23:06.581Z,52.58
2023-05-03T07:25:34.802Z,52.77
2023-05-03T07:28:03.235Z,52.69
2023-05-03T07:30:30.998Z,52.42
2023-05-03T07:32:58.881Z,52.45
2023-05-03T07:35:29.328Z,52.49
2023-05-03T07:37:57.163Z,52.61
2023-05-03T07:40:25.162Z,52.37
2023-05-03T07:42:52.932Z,53.01
2023-05-03T07:45:21.128Z,53.04
2023-05-03T07:47:48.908Z,52.89
2023-05-03T07:50:16.842Z,52.23
2023-05-03T07:52:44.786Z,51.02
2023-05-03T07:55:12.822Z,50.20
2023-05-03T07:57:40.546Z,49.15
2023-05-03T08:00:10.914Z,49.15
2023-05-03T08:02:41.697Z,49.38
2023-05-03T08:05:13.966Z,49.75
2023-05-03T08:07:42.183Z,49.59
2023-05-03T08:10:10.646Z,48.62
2023-05-03T08:12:38.702Z,47.54
2023-05-03T08:15:07.207Z,47.08
2023-05-03T08:17:42.974Z,47.34
2023-05-03T08:20:12.254Z,48.03
2023-05-03T08:22:41.514Z,47.77
2023-05-03T08:25:09.992Z,46.72
2023-05-03T08:27:39.057Z,45.98
2023-05-03T08:30:07.796Z,46.82
2023-05-03T08:32:35.643Z,47.47
2023-05-03T08:35:07.178Z,47.44
2023-05-03T08:37:40.167Z,48.21
2023-05-03T08:40:11.653Z,47.79
2023-05-03T08:42:44.779Z,46.77
2023-05-03T08:45:16.298Z,44.65
2023-05-03T08:47:45.582Z,43.66
2023-05-03T08:50:15.067Z,43.77
2023-05-03T08:52:43.486Z,43.86
2023-05-03T08:55:11.682Z,44.82
2023-05-03T08:57:39.900Z,44.79
2023-05-03T09:00:11.247Z,44.80
2023-05-03T09:02:40.148Z,45.68
2023-05-03T09:05:14.370Z,43.05
2023-05-03T09:08:09.966Z,41.71
2023-05-03T09:10:40.072Z,41.74
2023-05-03T09:13:09.414Z,41.75
2023-05-03T09:15:37.534Z,41.35
2023-05-03T09:18:15.827Z,40.03
2023-05-03T09:20:54.207Z,39.52
2023-05-03T09:23:31.507Z,39.55
2023-05-03T09:26:00.397Z,39.22
2023-05-03T09:28:28.347Z,38.55
2023-05-03T09:31:07.243Z,37.44
2023-05-03T09:33:35.330Z,36.68
2023-05-03T09:36:05.151Z,37.39
2023-05-03T09:38:34.930Z,37.42
2023-05-03T09:41:08.703Z,37.30
2023-05-03T09:44:02.940Z,36.90
2023-05-03T09:46:32.512Z,35.08
2023-05-03T09:49:00.462Z,35.24
2023-05-03T09:51:29.731Z,36.96
2023-05-03T09:53:58.981Z,36.82
2023-05-03T09:56:26.822Z,34.40
2023-05-03T09:58:54.814Z,33.23
2023-05-03T10:01:25.406Z,33.61
2023-05-03T10:03:58.230Z,34.07
2023-05-03T10:06:29.982Z,34.47
2023-05-03T10:09:14.499Z,34.94
2023-05-03T10:11:50.496Z,34.85
2023-05-03T10:14:18.933Z,35.57
2023-05-03T10:16:50.142Z,34.49
2023-05-03T10:19:25.102Z,33.88
2023-05-03T10:22:04.547Z,33.62
2023-05-03T10:24:33.852Z,34.18
2023-05-03T10:27:02.459Z,35.03
2023-05-03T10:29:37.639Z,34.71
2023-05-03T10:32:06.473Z,33.17
2023-05-03T10:34:36.697Z,33.36
2023-05-03T10:37:12.330Z,33.41
2023-05-03T10:39:44.769Z,33.46
2023-05-03T10:42:13.298Z,33.48
2023-05-03T10:44:52.916Z,33.55
2023-05-03T10:47:25.540Z,33.38
2023-05-03T10:50:12.233Z,32.66
2023-05-03T10:52:39.989Z,31.03
2023-05-03T10:55:16.156Z,30.34
2023-05-03T10:57:48.051Z,31.39
2023-05-03T11:00:38.440Z,30.19
2023-05-03T11:03:22.050Z,29.72
2023-05-03T11:05:51.837Z,30.72
2023-05-03T11:08:21.773Z,30.35
2023-05-03T11:10:57.411Z,29.54
2023-05-03T11:13:26.053Z,28.45
2023-05-03T11:15:56.294Z,29.19
2023-05-03T11:18:27.340Z,29.25
2023-05-03T11:20:55.947Z,29.10
2023-05-03T11:23:28.999Z,29.41
2023-05-03T11:25:59.808Z,30.17
2023-05-03T11:28:27.621Z,29.43
2023-05-03T11:30:55.484Z,29.08
2023-05-03T11:33:23.513Z,29.77
2023-05-03T11:35:56.085Z,30.52
2023-05-03T11:38:23.824Z,31.70
2023-05-03T11:40:51.786Z,31.59
2023-05-03T11:43:19.589Z,30.80
2023-05-03T11:45:49.276Z,29.73
2023-05-03T11:48:17.482Z,30.62
2023-05-03T11:50:51.317Z,31.50
2023-05-03T11:53:19.619Z,31.69
2023-05-03T11:55:49.360Z,31.54
2023-05-03T11:58:26.863Z,32.23
2023-05-03T12:00:56.831Z,32.41
2023-05-03T12:03:32.207Z,31.54
2023-05-03T12:06:02.705Z,32.14
2023-05-03T12:08:36.533Z,31.80
2023-05-03T12:11:07.585Z,31.69
2023-05-03T12:13:39.691Z,31.38
2023-05-03T12:16:13.557Z,32.18
2023-05-03T12:18:58.805Z,33.11
2023-05-03T12:21:59.345Z,33.14
2023-05-03T12:24:34.889Z,32.57
2023-05-03T12:27:04.296Z,32.62
2023-05-03T12:29:35.405Z,32.75
2023-05-03T12:32:05.081Z,32.14
2023-05-03T12:34:36.203Z,32.64
2023-05-03T12:37:06.427Z,32.96
2023-05-03T12:39:39.277Z,33.38
2023-05-03T12:42:09.277Z,33.47
2023-05-03T12:44:42.687Z,33.54
2023-05-03T12:47:11.643Z,33.71
2023-05-03T12:49:46.008Z,34.06
2023-05-03T12:55:02.883Z,33.84
2023-05-03T12:57:36.706Z,33.57
2023-05-03T13:00:14.374Z,33.16
2023-05-03T13:05:27.698Z,34.04
2023-05-03T13:08:07.993Z,32.80
2023-05-03T13:10:39.075Z,31.71
2023-05-03T13:13:07.365Z,32.32
2023-05-03T13:15:36.510Z,32.42
2023-05-03T13:18:07.840Z,32.78
2023-05-03T13:20:37.817Z,32.41
2023-05-03T13:23:05.830Z,32.32
2023-05-03T13:25:33.630Z,32.83
2023-05-03T13:28:01.709Z,33.15
2023-05-03T13:30:29.746Z,32.12
2023-05-03T13:32:57.624Z,31.53
2023-05-03T13:35:25.876Z,31.85
2023-05-03T13:37:53.649Z,32.25
2023-05-03T13:40:21.623Z,31.03
2023-05-03T13:42:49.516Z,31.15
2023-05-03T13:45:18.384Z,31.39
2023-05-03T13:48:13.306Z,31.77
2023-05-03T13:50:34.437Z,31.66
2023-05-03T13:53:02.252Z,31.53
2023-05-03T13:55:30.050Z,31.03
2023-05-03T13:57:57.983Z,31.11
2023-05-03T14:00:25.910Z,31.11
2023-05-03T14:02:53.801Z,31.57
2023-05-03T14:05:21.739Z,32.57
2023-05-03T14:07:49.529Z,32.40
2023-05-03T14:10:17.380Z,31.77
2023-05-03T14:12:45.760Z,30.95
2023-05-03T14:15:14.557Z,30.31
2023-05-03T14:17:43.745Z,30.11
2023-05-03T14:20:12.460Z,30.57
2023-05-03T14:22:40.468Z,30.04
2023-05-03T14:25:08.911Z,29.75
2023-05-03T14:27:37.121Z,30.05
2023-05-03T14:30:05.980Z,30.32
2023-05-03T14:32:34.119Z,30.82
2023-05-03T14:35:02.107Z,30.82
2023-05-03T14:37:30.919Z,31.27
2023-05-03T14:39:58.776Z,31.58
2023-05-03T14:42:30.255Z,31.38
2023-05-03T14:44:58.777Z,32.14
2023-05-03T14:47:26.636Z,32.19
2023-05-03T14:49:54.488Z,32.71
2023-05-03T14:52:22.732Z,33.55
2023-05-03T14:54:50.708Z,32.49
2023-05-03T14:57:18.486Z,32.05
2023-05-03T14:59:47.258Z,31.71
2023-05-03T15:02:15.254Z,31.82
2023-05-03T15:04:43.401Z,32.04
2023-05-03T15:07:11.605Z,32.42
2023-05-03T15:09:39.863Z,32.70
2023-05-03T15:12:08.169Z,32.58
2023-05-03T15:14:35.929Z,33.18
2023-05-03T15:17:03.818Z,33.10
2023-05-03T15:19:32.396Z,33.20
2023-05-03T15:22:00.179Z,33.69
2023-05-03T15:24:27.979Z,33.86
2023-05-03T15:26:57.132Z,33.27
2023-05-03T15:29:25.106Z,33.37
2023-05-03T15:31:52.870Z,33.29
2023-05-03T15:34:20.646Z,33.38
2023-05-03T15:36:48.639Z,33.48
2023-05-03T15:39:16.389Z,33.54
2023-05-03T15:41:45.835Z,33.83
2023-05-03T15:44:15.085Z,33.97
2023-05-03T15:46:43.105Z,34.19
2023-05-03T15:49:12.004Z,34.20
2023-05-03T15:51:40.166Z,34.59
2023-05-03T15:54:07.945Z,34.89
2023-05-03T15:56:38.255Z,34.92
2023-05-03T15:59:06.301Z,35.14
2023-05-03T16:01:34.436Z,35.23
2023-05-03T16:04:02.255Z,35.02
2023-05-03T16:06:30.075Z,35.27
2023-05-03T16:08:59.307Z,35.37
2023-05-03T16:11:27.186Z,35.41
2023-05-03T16:13:54.987Z,35.39
2023-05-03T16:16:22.890Z,35.59
2023-05-03T16:18:50.974Z,35.53
2023-05-03T16:21:18.843Z,35.59
2023-05-03T16:23:47.179Z,35.23
2023-05-03T16:26:15.282Z,35.65
2023-05-03T16:28:43.167Z,35.74
2023-05-03T16:31:12.893Z,35.90
2023-05-03T16:33:40.768Z,36.01
2023-05-03T16:36:09.608Z,35.90
2023-05-03T16:38:39.004Z,35.84
2023-05-03T16:41:07.425Z,35.78
2023-05-03T16:43:35.316Z,35.75
2023-05-03T16:46:03.263Z,35.62
2023-05-03T16:48:32.666Z,35.51
2023-05-03T16:51:01.040Z,35.80
2023-05-03T16:53:28.771Z,35.34
2023-05-03T16:55:56.907Z,35.21
2023-05-03T16:58:25.315Z,35.83
2023-05-03T17:00:53.517Z,35.81
2023-05-03T17:03:21.656Z,36.31
2023-05-03T17:05:49.851Z,35.75
2023-05-03T17:08:17.958Z,35.60
2023-05-03T17:10:45.792Z,36.22
2023-05-03T17:13:13.931Z,36.01
2023-05-03T17:15:43.039Z,36.21
2023-05-03T17:18:11.790Z,36.99
2023-05-03T17:20:39.603Z,36.75
2023-05-03T17:23:07.617Z,37.25
2023-05-03T17:25:36.081Z,37.14
2023-05-03T17:28:04.442Z,37.33
2023-05-03T17:30:32.599Z,36.82
2023-05-03T17:33:00.476Z,36.86
2023-05-03T17:35:28.627Z,37.63
2023-05-03T17:37:57.156Z,37.63
2023-05-03T17:40:25.353Z,38.67
2023-05-03T17:42:53.226Z,40.08
2023-05-03T17:45:21.268Z,41.04
2023-05-03T17:47:49.268Z,41.97
2023-05-03T17:50:17.358Z,41.70
2023-05-03T17:52:45.361Z,42.20
2023-05-03T17:55:13.310Z,42.19
2023-05-03T17:57:41.181Z,42.63
2023-05-03T18:00:15.170Z,42.72
2023-05-03T18:02:43.447Z,43.81
2023-05-03T18:05:12.236Z,43.72
2023-05-03T18:07:40.090Z,43.80
2023-05-03T18:10:09.501Z,44.09
2023-05-03T18:12:37.516Z,44.17
2023-05-03T18:15:06.326Z,44.47
2023-05-03T18:17:34.271Z,45.06
2023-05-03T18:20:02.734Z,46.12
2023-05-03T18:22:30.926Z,46.02
2023-05-03T18:25:01.980Z,45.61
2023-05-03T18:27:29.891Z,45.89
2023-05-03T18:29:57.638Z,46.06
2023-05-03T18:32:26.130Z,46.66
2023-05-03T18:34:53.973Z,47.71
2023-05-03T18:37:23.989Z,48.27
2023-05-03T18:39:52.765Z,48.04
2023-05-03T18:42:21.424Z,48.29
2023-05-03T18:44:49.560Z,48.54
2023-05-03T18:47:20.967Z,49.05
2023-05-03T18:49:53.066Z,49.50
2023-05-03T18:52:23.066Z,49.54
2023-05-03T18:54:51.444Z,50.24
2023-05-03T18:57:20.139Z,50.40
2023-05-03T18:59:59.578Z,50.64
2023-05-03T19:02:31.535Z,50.96
2023-05-03T19:05:00.082Z,51.51
2023-05-03T19:07:28.155Z,51.95
2023-05-03T19:09:57.456Z,52.10
2023-05-03T19:12:25.438Z,52.57
2023-05-03T19:14:53.383Z,52.96
2023-05-03T19:17:21.385Z,53.76
2023-05-03T19:19:49.128Z,53.71
2023-05-03T19:22:16.977Z,54.01
2023-05-03T19:24:44.888Z,54.11
2023-05-03T19:27:12.806Z,54.49
2023-05-03T19:29:40.711Z,54.70
2023-05-03T19:32:08.493Z,54.98
2023-05-03T19:34:36.492Z,55.60
2023-05-03T19:37:05.065Z,55.71
2023-05-03T19:39:35.697Z,56.32
2023-05-03T19:42:04.531Z,56.49
2023-05-03T19:44:33.553Z,56.68
2023-05-03T19:47:01.530Z,56.76
2023-05-03T19:49:29.855Z,56.96
2023-05-03T19:51:57.752Z,57.60
2023-05-03T19:54:26.213Z,58.29
2023-05-03T19:56:55.248Z,58.86
2023-05-03T19:59:23.115Z,59.39
2023-05-03T20:01:51.221Z,59.77
2023-05-03T20:04:19.350Z,60.25
2023-05-03T20:06:47.280Z,60.50
2023-05-03T20:09:15.503Z,60.69
2023-05-03T20:11:43.580Z,60.75
2023-05-03T20:14:11.828Z,60.89
2023-05-03T20:16:39.968Z,61.05
2023-05-03T20:19:07.964Z,61.23
2023-05-03T20:21:35.658Z,61.40
2023-05-03T20:24:04.873Z,61.47
2023-05-03T20:26:32.610Z,61.76
2023-05-03T20:29:00.803Z,61.95
2023-05-03T20:31:28.556Z,62.20
2023-05-03T20:33:56.720Z,62.40
2023-05-03T20:36:24.649Z,62.59
2023-05-03T20:38:52.556Z,62.70
2023-05-03T20:41:20.736Z,62.90
2023-05-03T20:43:48.548Z,63.23
2023-05-03T20:46:18.399Z,63.53
2023-05-03T20:48:46.238Z,63.86
2023-05-03T20:51:14.958Z,64.19
2023-05-03T20:53:42.776Z,64.44
2023-05-03T20:56:11.363Z,64.69
2023-05-03T20:58:39.561Z,65.09
2023-05-03T21:01:08.217Z,65.42
2023-05-03T21:03:36.437Z,65.86
2023-05-03T21:06:05.907Z,66.13
2023-05-03T21:08:35.887Z,66.35
2023-05-03T21:11:04.323Z,66.39
2023-05-03T21:13:35.565Z,66.58
2023-05-03T21:16:03.780Z,66.64
2023-05-03T21:18:31.579Z,66.68
2023-05-03T21:20:59.419Z,66.72
2023-05-03T21:23:27.291Z,67.05
2023-05-03T21:25:56.371Z,67.30
2023-05-03T21:28:24.439Z,67.42
2023-05-03T21:30:54.510Z,67.76
2023-05-03T21:33:22.537Z,67.80
2023-05-03T21:35:50.441Z,68.17
2023-05-03T21:38:18.268Z,68.42
2023-05-03T21:40:47.159Z,68.54
2023-05-03T21:43:15.401Z,68.76
2023-05-03T21:45:44.157Z,69.15
2023-05-03T21:48:12.646Z,69.41
2023-05-03T21:50:40.561Z,69.56
2023-05-03T21:53:08.381Z,69.75
2023-05-03T21:55:36.277Z,69.90
2023-05-03T21:58:04.103Z,70.09
2023-05-03T22:00:31.941Z,70.23
2023-05-03T22:02:59.821Z,70.41
2023-05-03T22:05:28.154Z,70.61
2023-05-03T22:07:55.909Z,70.85
2023-05-03T22:10:23.729Z,71.00
2023-05-03T22:12:51.769Z,71.12
2023-05-03T22:15:19.792Z,71.31
2023-05-03T22:17:47.751Z,71.59
2023-05-03T22:20:15.567Z,71.79
2023-05-03T22:22:43.624Z,71.96
2023-05-03T22:25:22.942Z,72.12
2023-05-03T22:27:51.916Z,72.34
2023-05-03T22:30:20.411Z,72.60
2023-05-03T22:32:48.218Z,72.73
2023-05-03T22:35:16.156Z,72.79
2023-05-03T22:37:43.933Z,72.78
2023-05-03T22:40:11.988Z,72.81
2023-05-03T22:42:39.802Z,72.80
2023-05-03T22:45:08.626Z,72.90
2023-05-03T22:47:36.471Z,72.98
2023-05-03T22:50:05.761Z,73.13
2023-05-03T22:52:33.708Z,73.30
2023-05-03T22:55:02.746Z,73.47
2023-05-03T22:57:30.813Z,73.65
2023-05-03T22:59:59.426Z,73.91
2023-05-03T23:02:27.417Z,74.14
2023-05-03T23:04:55.258Z,74.25
2023-05-03T23:07:23.059Z,74.40
2023-05-03T23:09:59.706Z,74.54
2023-05-03T23:12:27.477Z,74.63
2023-05-03T23:14:55.225Z,74.71
2023-05-03T23:17:23.218Z,74.75
2023-05-03T23:19:51.082Z,74.86
2023-05-03T23:22:18.929Z,74.99
2023-05-03T23:24:46.648Z,75.05
2023-05-03T23:27:14.439Z,75.08
2023-05-03T23:29:43.096Z,75.16
2023-05-03T23:32:11.375Z,75.29
2023-05-03T23:34:39.763Z,75.41
2023-05-03T23:40:39.565Z,76.02
2023-05-03T23:43:07.552Z,76.07
2023-05-03T23:45:35.644Z,76.07
2023-05-03T23:48:03.492Z,76.08
2023-05-03T23:50:31.310Z,76.09
2023-05-03T23:52:59.374Z,76.16
2023-05-03T23:55:27.136Z,76.24
2023-05-03T23:57:54.902Z,76.33
